Time;durP1;ratioP1;P1;durP2;ratioP2;P2;SDS_P1;SDS_P2;PMS_P1;PMS_P2;Temp;Humidity;BMP_temperature;BMP_pressure;BME280_temperature;BME280_humidity;BME280_pressure;Samples;Min_cycle;Max_cycle;Signal;HPM_P1;HPM_P2
2023/01/15 00:00:20;;;;;;;70.15;37.65;;;;;;;;;;5036711;28;20351;-45
2023/01/15 00:02:46;;;;;;;62.38;37.42;;;;;;;;;;5031408;28;20114;-48
2023/01/15 00:05:13;;;;;;;62.95;38.55;;;;;;;;;;5037582;28;20049;-45
2023/01/15 00:07:40;;;;;;;64.30;37.60;;;;;;;;;;5036678;28;20036;-44
2023/01/15 00:10:07;;;;;;;64.70;38.38;;;;;;;;;;5033538;28;20049;-46
2023/01/15 00:12:34;;;;;;;60.92;37.60;;;;;;;;;;5035315;28;20264;-47
2023/01/15 00:15:00;;;;;;;63.95;37.30;;;;;;;;;;5035173;28;20051;-46
2023/01/15 00:17:27;;;;;;;58.92;36.30;;;;;;;;;;5037112;28;20060;-46
2023/01/15 00:19:54;;;;;;;62.70;38.75;;;;;;;;;;5035465;28;20127;-46
2023/01/15 00:22:20;;;;;;;54.08;34.83;;;;;;;;;;5034372;28;20047;-48
2023/01/15 00:27:39;;;;;;;59.25;35.67;;;;;;;;;;5043433;28;20060;-42
2023/01/15 00:30:08;;;;;;;58.10;36.38;;;;;;;;;;5038816;28;20484;-49
2023/01/15 00:32:37;;;;;;;55.65;35.65;;;;;;;;;;5045465;28;20037;-47
2023/01/15 00:35:04;;;;;;;60.63;35.45;;;;;;;;;;5046718;28;20045;-46
2023/01/15 00:37:30;;;;;;;56.65;34.53;;;;;;;;;;5050125;28;20036;-48
2023/01/15 00:39:57;;;;;;;54.17;34.90;;;;;;;;;;5044700;28;20059;-46
2023/01/15 00:42:23;;;;;;;50.97;33.25;;;;;;;;;;5041887;28;20505;-45
2023/01/15 00:44:50;;;;;;;53.50;33.58;;;;;;;;;;5036988;28;20799;-45
2023/01/15 00:47:17;;;;;;;54.75;34.05;;;;;;;;;;5036536;28;20090;-46
2023/01/15 00:49:43;;;;;;;50.88;32.03;;;;;;;;;;5033937;28;20030;-45
2023/01/15 00:52:10;;;;;;;50.40;30.95;;;;;;;;;;5037836;28;20098;-46
2023/01/15 00:54:37;;;;;;;48.25;30.35;;;;;;;;;;5037478;28;20055;-47
2023/01/15 00:57:04;;;;;;;49.42;31.13;;;;;;;;;;5036836;28;20033;-46
2023/01/15 00:59:30;;;;;;;54.28;30.67;;;;;;;;;;5039893;28;20868;-48
2023/01/15 01:01:57;;;;;;;45.20;29.80;;;;;;;;;;5040447;28;20567;-46
2023/01/15 01:04:24;;;;;;;49.05;32.03;;;;;;;;;;5038528;28;20056;-45
2023/01/15 01:06:51;;;;;;;50.25;32.20;;;;;;;;;;5039496;28;20505;-44
2023/01/15 01:09:18;;;;;;;46.65;29.23;;;;;;;;;;5037438;28;20163;-45
2023/01/15 01:11:44;;;;;;;47.95;31.50;;;;;;;;;;5034707;28;20044;-44
2023/01/15 01:14:11;;;;;;;45.67;29.77;;;;;;;;;;5038785;28;20037;-45
2023/01/15 01:16:40;;;;;;;49.05;30.85;;;;;;;;;;5037034;28;20052;-45
2023/01/15 01:19:09;;;;;;;46.80;29.90;;;;;;;;;;5040828;28;20075;-49
2023/01/15 01:21:36;;;;;;;42.20;28.60;;;;;;;;;;5037476;28;20327;-48
2023/01/15 01:24:03;;;;;;;47.85;30.38;;;;;;;;;;5035690;28;20079;-46
2023/01/15 01:26:29;;;;;;;44.33;28.98;;;;;;;;;;5041293;28;20041;-45
2023/01/15 01:28:56;;;;;;;43.25;28.98;;;;;;;;;;5040233;28;20502;-45
2023/01/15 01:31:23;;;;;;;41.38;27.88;;;;;;;;;;5043324;28;20558;-46
2023/01/15 01:33:52;;;;;;;40.47;28.15;;;;;;;;;;5040557;28;20045;-45
2023/01/15 01:36:19;;;;;;;45.97;31.13;;;;;;;;;;5042625;28;20049;-47
2023/01/15 01:38:48;;;;;;;41.10;27.23;;;;;;;;;;5040111;28;20052;-46
2023/01/15 01:41:16;;;;;;;41.42;26.85;;;;;;;;;;5042813;28;20099;-47
2023/01/15 01:43:53;;;;;;;41.88;29.05;;;;;;;;;;5041890;28;20108;-47
2023/01/15 01:46:19;;;;;;;36.00;25.80;;;;;;;;;;5039888;28;20037;-45
2023/01/15 01:48:47;;;;;;;42.42;27.15;;;;;;;;;;5038310;28;20537;-45
2023/01/15 01:51:14;;;;;;;40.30;26.85;;;;;;;;;;5041880;28;20037;-46
2023/01/15 01:53:41;;;;;;;38.90;25.45;;;;;;;;;;5040752;28;20480;-47
2023/01/15 01:56:10;;;;;;;36.47;25.35;;;;;;;;;;5040192;28;20098;-44
2023/01/15 01:58:37;;;;;;;38.85;25.90;;;;;;;;;;5041753;28;20045;-46
2023/01/15 02:01:04;;;;;;;36.25;25.23;;;;;;;;;;5041757;28;20107;-45
2023/01/15 02:03:33;;;;;;;38.38;26.42;;;;;;;;;;5041041;28;20072;-45
2023/01/15 02:06:03;;;;;;;35.60;24.83;;;;;;;;;;5038810;28;20044;-45
2023/01/15 02:08:31;;;;;;;37.40;25.60;;;;;;;;;;5040267;28;20041;-47
2023/01/15 02:10:58;;;;;;;36.35;24.55;;;;;;;;;;5038982;28;20041;-45
2023/01/15 02:13:28;;;;;;;35.95;24.30;;;;;;;;;;5042878;28;20468;-44
2023/01/15 02:16:01;;;;;;;34.40;22.98;;;;;;;;;;5041470;28;20041;-44
2023/01/15 02:18:30;;;;;;;35.83;23.80;;;;;;;;;;5036192;28;20060;-44
2023/01/15 02:20:58;;;;;;;34.80;24.63;;;;;;;;;;5038615;28;20633;-44
2023/01/15 02:23:51;;;;;;;31.15;21.98;;;;;;;;;;5042317;28;20071;-45
2023/01/15 02:26:18;;;;;;;32.92;21.75;;;;;;;;;;5051470;28;20044;-44
2023/01/15 02:28:46;;;;;;;;;;;;;;;;;;5037743;28;20128;-44
2023/01/15 02:31:12;;;;;;;32.00;21.60;;;;;;;;;;5034929;28;19959;-46
2023/01/15 02:33:43;;;;;;;32.03;21.63;;;;;;;;;;5035892;28;20047;-47
2023/01/15 02:36:12;;;;;;;30.65;21.27;;;;;;;;;;5038051;28;20052;-45
2023/01/15 02:38:41;;;;;;;30.92;21.20;;;;;;;;;;5035242;28;20049;-45
2023/01/15 02:41:15;;;;;;;27.27;19.65;;;;;;;;;;5025833;28;20110;-46
2023/01/15 02:43:45;;;;;;;27.60;19.98;;;;;;;;;;5036366;28;20079;-45
2023/01/15 02:46:13;;;;;;;31.75;21.05;;;;;;;;;;5043654;28;20042;-46
2023/01/15 02:48:40;;;;;;;29.65;20.63;;;;;;;;;;5038855;28;20045;-47
2023/01/15 02:51:11;;;;;;;28.40;18.83;;;;;;;;;;5040167;28;20132;-46
2023/01/15 02:53:39;;;;;;;31.98;21.00;;;;;;;;;;5037243;28;20041;-44
2023/01/15 02:56:08;;;;;;;26.77;18.70;;;;;;;;;;5037140;28;20130;-46
2023/01/15 02:58:43;;;;;;;27.55;20.33;;;;;;;;;;5035469;28;20045;-46
2023/01/15 03:01:26;;;;;;;28.20;19.85;;;;;;;;;;5039200;28;20138;-47
2023/01/15 03:03:52;;;;;;;25.90;17.80;;;;;;;;;;5037332;28;20057;-45
2023/01/15 03:06:19;;;;;;;25.23;18.48;;;;;;;;;;5038251;28;20040;-44
2023/01/15 03:08:46;;;;;;;25.38;18.25;;;;;;;;;;5039311;28;20036;-44
2023/01/15 03:11:15;;;;;;;27.13;18.27;;;;;;;;;;5038310;28;20048;-44
2023/01/15 03:13:45;;;;;;;25.13;17.10;;;;;;;;;;5036297;28;20037;-45
2023/01/15 03:16:36;;;;;;;22.27;16.80;;;;;;;;;;5036644;28;20098;-45
2023/01/15 03:19:11;;;;;;;26.00;17.73;;;;;;;;;;5037412;28;20049;-44
2023/01/15 03:21:43;;;;;;;26.92;17.80;;;;;;;;;;5038880;28;20045;-47
2023/01/15 03:24:10;;;;;;;27.70;17.98;;;;;;;;;;5041080;28;20040;-48
2023/01/15 03:26:37;;;;;;;22.92;15.25;;;;;;;;;;5033172;28;20063;-48
2023/01/15 03:29:06;;;;;;;23.17;16.88;;;;;;;;;;5040305;28;20110;-47
2023/01/15 03:31:33;;;;;;;23.02;15.75;;;;;;;;;;5036783;28;20037;-46
2023/01/15 03:34:00;;;;;;;28.48;15.43;;;;;;;;;;5039693;28;20195;-47
2023/01/15 03:36:26;;;;;;;24.73;16.83;;;;;;;;;;5039776;28;20382;-48
2023/01/15 03:38:59;;;;;;;23.83;16.48;;;;;;;;;;5039901;28;20049;-46
2023/01/15 03:41:47;;;;;;;20.88;14.88;;;;;;;;;;5036123;28;20056;-45
2023/01/15 03:44:14;;;;;;;21.15;16.55;;;;;;;;;;5037887;28;20040;-47
2023/01/15 03:46:41;;;;;;;23.05;15.70;;;;;;;;;;5034697;28;21503;-45
2023/01/15 03:49:13;;;;;;;20.88;15.73;;;;;;;;;;5036442;28;20041;-44
2023/01/15 03:51:41;;;;;;;22.83;15.00;;;;;;;;;;5036120;28;20486;-48
2023/01/15 03:54:12;;;;;;;20.95;14.27;;;;;;;;;;5039584;28;20044;-57
2023/01/15 03:56:56;;;;;;;21.95;15.20;;;;;;;;;;5040415;28;20078;-46
2023/01/15 03:59:31;;;;;;;20.02;14.73;;;;;;;;;;5040456;28;20071;-48
2023/01/15 04:02:02;;;;;;;20.15;13.50;;;;;;;;;;5038617;28;20142;-51
2023/01/15 04:04:29;;;;;;;18.88;14.88;;;;;;;;;;5036190;28;20056;-50
2023/01/15 04:06:58;;;;;;;21.05;14.68;;;;;;;;;;5037261;28;20045;-47
2023/01/15 04:09:26;;;;;;;19.50;14.98;;;;;;;;;;5035774;28;20037;-47
2023/01/15 04:11:59;;;;;;;19.10;13.77;;;;;;;;;;5039256;28;20509;-53
2023/01/15 04:14:30;;;;;;;18.70;13.73;;;;;;;;;;5037212;28;20040;-45
2023/01/15 04:16:57;;;;;;;20.48;14.07;;;;;;;;;;5038034;28;20048;-45
2023/01/15 04:19:24;;;;;;;18.58;13.13;;;;;;;;;;5034469;28;20048;-47
2023/01/15 04:21:57;;;;;;;17.92;13.27;;;;;;;;;;5036667;28;20056;-46
2023/01/15 04:24:24;;;;;;;17.85;12.55;;;;;;;;;;5036841;28;20049;-45
2023/01/15 04:26:50;;;;;;;18.58;13.63;;;;;;;;;;5041032;28;20114;-48
2023/01/15 04:29:17;;;;;;;17.33;12.30;;;;;;;;;;5036051;28;20075;-44
2023/01/15 04:31:44;;;;;;;18.67;11.95;;;;;;;;;;5038671;28;20582;-45
2023/01/15 04:34:10;;;;;;;18.25;13.27;;;;;;;;;;5035765;28;20099;-46
2023/01/15 04:36:37;;;;;;;17.65;13.07;;;;;;;;;;5037088;28;20104;-45
2023/01/15 04:39:04;;;;;;;18.00;12.25;;;;;;;;;;5038055;28;20049;-47
2023/01/15 04:44:15;;;;;;;17.95;12.05;;;;;;;;;;5037152;28;20041;-46
2023/01/15 04:46:43;;;;;;;16.48;11.65;;;;;;;;;;5034768;28;20029;-46
2023/01/15 04:49:11;;;;;;;17.40;12.57;;;;;;;;;;5038687;28;20066;-48
2023/01/15 04:51:38;;;;;;;16.65;11.60;;;;;;;;;;5035776;28;20098;-44
2023/01/15 04:54:08;;;;;;;15.73;12.35;;;;;;;;;;5040057;28;20040;-45
2023/01/15 04:56:39;;;;;;;15.25;10.70;;;;;;;;;;5036009;28;20049;-46
2023/01/15 04:59:06;;;;;;;16.35;10.85;;;;;;;;;;5036669;28;20080;-46
2023/01/15 05:01:33;;;;;;;15.85;11.10;;;;;;;;;;5036198;28;20698;-45
2023/01/15 05:04:01;;;;;;;15.23;10.98;;;;;;;;;;5038038;28;20052;-48
2023/01/15 05:06:28;;;;;;;15.43;10.95;;;;;;;;;;5036810;28;20541;-47
2023/01/15 05:08:54;;;;;;;20.50;10.77;;;;;;;;;;5038329;28;20518;-44
2023/01/15 05:11:21;;;;;;;16.17;11.60;;;;;;;;;;5029720;28;20277;-46
2023/01/15 05:13:48;;;;;;;17.08;11.20;;;;;;;;;;5032091;28;20072;-44
2023/01/15 05:16:18;;;;;;;15.13;11.25;;;;;;;;;;5037556;28;20129;-45
2023/01/15 05:18:45;;;;;;;16.45;11.13;;;;;;;;;;5035317;28;20033;-47
2023/01/15 05:21:17;;;;;;;16.67;10.50;;;;;;;;;;5038601;28;20514;-43
2023/01/15 05:23:43;;;;;;;17.55;11.88;;;;;;;;;;5036578;28;20052;-43
2023/01/15 05:26:10;;;;;;;22.70;11.55;;;;;;;;;;5034168;28;20522;-44
2023/01/15 05:28:37;;;;;;;14.93;10.55;;;;;;;;;;5034745;28;20125;-44
2023/01/15 05:31:10;;;;;;;16.02;11.40;;;;;;;;;;5038501;28;20685;-46
2023/01/15 05:33:37;;;;;;;17.55;11.10;;;;;;;;;;5032842;28;20787;-44
2023/01/15 05:36:08;;;;;;;15.68;11.07;;;;;;;;;;5037595;28;20418;-46
2023/01/15 05:38:35;;;;;;;15.80;10.98;;;;;;;;;;5032478;28;20037;-44
2023/01/15 05:41:03;;;;;;;15.05;10.77;;;;;;;;;;5035537;28;20040;-44
2023/01/15 05:43:30;;;;;;;15.40;11.40;;;;;;;;;;5031557;28;20056;-44
2023/01/15 05:46:00;;;;;;;14.95;9.90;;;;;;;;;;5035583;28;20048;-45
2023/01/15 05:48:27;;;;;;;15.13;10.82;;;;;;;;;;5036869;28;20045;-44
2023/01/15 05:50:54;;;;;;;15.88;11.02;;;;;;;;;;5035244;28;20079;-45
2023/01/15 05:53:21;;;;;;;15.10;10.50;;;;;;;;;;5036311;28;20048;-46
2023/01/15 05:55:48;;;;;;;20.92;12.27;;;;;;;;;;5030612;28;20040;-47
2023/01/15 05:58:14;;;;;;;15.02;10.93;;;;;;;;;;5039281;28;20053;-46
2023/01/15 06:00:41;;;;;;;14.27;10.52;;;;;;;;;;5035957;28;20150;-44
2023/01/15 06:03:08;;;;;;;16.30;10.43;;;;;;;;;;5036181;28;20045;-44
2023/01/15 06:05:34;;;;;;;13.38;10.10;;;;;;;;;;5032166;28;20033;-44
2023/01/15 06:08:04;;;;;;;16.05;10.45;;;;;;;;;;5038397;28;20230;-49
2023/01/15 06:10:30;;;;;;;15.00;9.98;;;;;;;;;;5036850;28;20037;-46
2023/01/15 06:12:57;;;;;;;14.63;9.85;;;;;;;;;;5039153;28;20052;-44
2023/01/15 06:15:24;;;;;;;13.38;7.90;;;;;;;;;;5036017;28;20049;-43
2023/01/15 06:17:50;;;;;;;12.57;9.05;;;;;;;;;;5036415;28;20137;-44
2023/01/15 06:20:17;;;;;;;11.43;9.25;;;;;;;;;;5039569;28;20037;-45
2023/01/15 06:22:43;;;;;;;12.05;7.80;;;;;;;;;;5037801;28;20048;-45
2023/01/15 06:25:10;;;;;;;11.93;8.07;;;;;;;;;;5040303;28;20120;-43
2023/01/15 06:27:37;;;;;;;13.50;8.35;;;;;;;;;;5041508;28;20037;-44
2023/01/15 06:30:04;;;;;;;13.00;8.30;;;;;;;;;;5038355;28;20149;-45
2023/01/15 06:32:31;;;;;;;11.77;8.10;;;;;;;;;;5036306;28;20091;-44
2023/01/15 06:34:58;;;;;;;11.80;7.78;;;;;;;;;;5039614;28;20041;-43
2023/01/15 06:37:24;;;;;;;10.30;7.05;;;;;;;;;;5036997;28;20154;-47
2023/01/15 06:39:51;;;;;;;10.98;7.07;;;;;;;;;;5037356;28;20068;-43
2023/01/15 06:47:48;;;;;;;11.75;7.70;;;;;;;;;;5037391;28;21055;-47
2023/01/15 06:50:15;;;;;;;12.70;8.13;;;;;;;;;;5041058;28;20444;-44
2023/01/15 06:52:42;;;;;;;11.70;7.82;;;;;;;;;;5039168;28;20041;-44
2023/01/15 06:55:10;;;;;;;12.13;8.82;;;;;;;;;;5038664;28;20048;-44
2023/01/15 06:57:37;;;;;;;12.27;7.55;;;;;;;;;;5039988;28;20033;-43
2023/01/15 07:00:05;;;;;;;13.60;7.57;;;;;;;;;;5038559;28;20053;-44
2023/01/15 07:02:32;;;;;;;9.57;7.00;;;;;;;;;;5039701;28;20743;-44
2023/01/15 07:04:58;;;;;;;12.13;7.93;;;;;;;;;;5038840;28;20045;-45
2023/01/15 07:07:26;;;;;;;9.68;6.88;;;;;;;;;;5041056;28;20041;-44
2023/01/15 07:09:53;;;;;;;10.10;6.75;;;;;;;;;;5039087;28;20052;-43
2023/01/15 07:12:20;;;;;;;11.80;7.60;;;;;;;;;;5039394;28;20471;-45
2023/01/15 07:14:47;;;;;;;10.07;6.80;;;;;;;;;;5036708;28;20545;-45
2023/01/15 07:17:13;;;;;;;15.27;7.13;;;;;;;;;;5037816;28;20057;-44
2023/01/15 07:19:40;;;;;;;17.50;8.30;;;;;;;;;;5037692;28;20061;-44
2023/01/15 07:22:08;;;;;;;10.90;7.22;;;;;;;;;;5039410;28;20052;-44
2023/01/15 07:24:35;;;;;;;10.40;6.88;;;;;;;;;;5042311;28;20098;-44
2023/01/15 07:27:02;;;;;;;11.57;7.38;;;;;;;;;;5064940;28;21272;-45
2023/01/15 07:29:28;;;;;;;11.77;6.80;;;;;;;;;;5039254;28;20106;-44
2023/01/15 07:31:57;;;;;;;11.30;7.40;;;;;;;;;;5038288;28;20106;-44
2023/01/15 07:34:23;;;;;;;9.57;6.38;;;;;;;;;;5039370;28;20049;-42
2023/01/15 07:36:50;;;;;;;11.88;7.97;;;;;;;;;;5039208;28;20573;-45
2023/01/15 07:39:17;;;;;;;11.85;8.10;;;;;;;;;;5040392;28;20065;-44
2023/01/15 07:50:06;;;;;;;11.05;8.35;;;;;;;;;;5040105;28;20128;-44
2023/01/15 07:52:33;;;;;;;10.80;7.53;;;;;;;;;;5039224;28;20457;-44
2023/01/15 07:55:00;;;;;;;15.63;6.80;;;;;;;;;;5039337;28;20127;-43
2023/01/15 07:57:26;;;;;;;12.13;8.35;;;;;;;;;;5037842;28;20410;-43
2023/01/15 07:59:53;;;;;;;11.55;8.25;;;;;;;;;;5040168;28;20079;-44
2023/01/15 08:02:20;;;;;;;12.23;6.43;;;;;;;;;;5035415;28;20843;-43
2023/01/15 08:04:47;;;;;;;11.80;7.28;;;;;;;;;;5037587;28;20526;-43
2023/01/15 08:07:14;;;;;;;10.60;7.47;;;;;;;;;;5038461;28;20037;-44
2023/01/15 08:09:41;;;;;;;11.82;6.15;;;;;;;;;;5037584;28;20033;-44
2023/01/15 08:15:12;;;;;;;;;;;;;;;;;;5035291;28;20415;-48
2023/01/15 08:17:40;;;;;;;9.10;5.97;;;;;;;;;;5032984;28;20656;-46
2023/01/15 08:20:10;;;;;;;12.05;6.47;;;;;;;;;;5026922;28;20040;-46
2023/01/15 08:22:37;;;;;;;9.13;6.55;;;;;;;;;;5040245;28;20057;-47
2023/01/15 08:25:04;;;;;;;9.85;6.70;;;;;;;;;;5034421;28;20052;-46
2023/01/15 08:27:31;;;;;;;12.10;7.22;;;;;;;;;;5036534;28;20041;-45
2023/01/15 08:29:58;;;;;;;;;;;;;;;;;;5035588;28;20114;-44
2023/01/15 08:32:25;;;;;;;9.93;6.03;;;;;;;;;;5038758;28;19928;-48
2023/01/15 08:34:51;;;;;;;9.98;6.35;;;;;;;;;;5035912;28;20044;-44
2023/01/15 08:37:18;;;;;;;11.30;6.43;;;;;;;;;;5037352;28;20500;-45
2023/01/15 08:39:45;;;;;;;10.40;6.32;;;;;;;;;;5037165;28;20060;-48
2023/01/15 08:42:11;;;;;;;9.95;6.05;;;;;;;;;;5034096;28;20569;-43
2023/01/15 08:44:38;;;;;;;8.80;6.43;;;;;;;;;;5037561;28;20041;-45
2023/01/15 08:47:05;;;;;;;11.75;5.45;;;;;;;;;;5036067;28;20060;-43
2023/01/15 08:49:31;;;;;;;10.25;6.30;;;;;;;;;;5036112;28;20062;-50
2023/01/15 08:51:59;;;;;;;8.70;6.47;;;;;;;;;;5035174;28;20033;-48
2023/01/15 08:54:26;;;;;;;8.85;6.07;;;;;;;;;;5037072;28;20044;-48
2023/01/15 08:56:53;;;;;;;8.93;6.28;;;;;;;;;;5034907;28;20040;-46
2023/01/15 08:59:19;;;;;;;11.75;5.38;;;;;;;;;;5034849;28;20053;-47
2023/01/15 09:01:46;;;;;;;13.32;5.57;;;;;;;;;;5034794;28;20041;-47
2023/01/15 09:04:17;;;;;;;7.95;5.43;;;;;;;;;;5033899;28;20053;-45
2023/01/15 09:06:44;;;;;;;7.88;5.50;;;;;;;;;;5035504;28;20072;-45
2023/01/15 09:09:11;;;;;;;10.88;6.05;;;;;;;;;;5039186;28;20036;-46
2023/01/15 09:11:40;;;;;;;9.35;5.68;;;;;;;;;;5033145;28;20037;-45
2023/01/15 09:14:07;;;;;;;8.95;5.55;;;;;;;;;;5034768;28;20064;-44
2023/01/15 09:16:54;;;;;;;9.02;5.82;;;;;;;;;;5039238;28;20222;-46
2023/01/15 09:19:21;;;;;;;8.70;5.65;;;;;;;;;;5033682;28;20727;-43
2023/01/15 09:21:48;;;;;;;7.60;5.18;;;;;;;;;;5042107;28;20103;-45
2023/01/15 09:24:14;;;;;;;10.50;6.30;;;;;;;;;;5035676;28;20049;-45
2023/01/15 09:26:41;;;;;;;8.48;5.25;;;;;;;;;;5036442;28;20052;-44
2023/01/15 09:29:09;;;;;;;12.43;5.32;;;;;;;;;;5035886;28;20044;-44
2023/01/15 09:31:35;;;;;;;11.32;5.55;;;;;;;;;;5038625;28;20134;-45
2023/01/15 09:34:02;;;;;;;7.78;5.32;;;;;;;;;;5034822;28;20171;-43
2023/01/15 09:36:30;;;;;;;8.48;5.22;;;;;;;;;;5036476;28;20037;-43
2023/01/15 09:38:57;;;;;;;9.18;5.20;;;;;;;;;;5034711;28;20792;-43
2023/01/15 09:44:10;;;;;;;8.63;4.88;;;;;;;;;;5035726;28;20086;-48
2023/01/15 09:46:40;;;;;;;10.00;5.85;;;;;;;;;;5039816;28;20122;-47
2023/01/15 09:49:25;;;;;;;7.68;4.40;;;;;;;;;;5037646;28;20045;-44
2023/01/15 09:52:11;;;;;;;8.27;5.10;;;;;;;;;;5040933;28;20068;-46
2023/01/15 09:54:44;;;;;;;11.93;4.93;;;;;;;;;;5038510;28;20052;-44
2023/01/15 09:57:12;;;;;;;13.60;5.28;;;;;;;;;;5039941;28;20041;-43
2023/01/15 09:59:41;;;;;;;18.48;6.38;;;;;;;;;;5040801;28;20045;-43
2023/01/15 10:02:34;;;;;;;11.32;5.35;;;;;;;;;;5037586;28;20048;-43
2023/01/15 10:05:12;;;;;;;8.98;4.70;;;;;;;;;;5034039;28;20084;-43
2023/01/15 10:07:50;;;;;;;11.15;6.60;;;;;;;;;;5037352;28;20124;-43
2023/01/15 10:10:19;;;;;;;8.38;4.72;;;;;;;;;;5038701;28;20838;-44
2023/01/15 10:12:47;;;;;;;11.73;4.82;;;;;;;;;;5038233;28;20549;-44
2023/01/15 10:15:21;;;;;;;9.32;5.68;;;;;;;;;;5037045;28;20085;-44
2023/01/15 10:17:49;;;;;;;9.80;4.72;;;;;;;;;;5036675;28;20145;-43
2023/01/15 10:20:18;;;;;;;9.07;4.20;;;;;;;;;;5040649;28;20102;-45
2023/01/15 10:22:51;;;;;;;7.38;4.78;;;;;;;;;;5038407;28;20051;-42
2023/01/15 10:25:20;;;;;;;7.65;4.35;;;;;;;;;;5041402;28;20370;-44
2023/01/15 10:27:49;;;;;;;9.07;4.38;;;;;;;;;;5037881;28;20127;-42
2023/01/15 10:30:19;;;;;;;9.13;5.30;;;;;;;;;;5041915;28;20138;-44
2023/01/15 10:32:57;;;;;;;7.75;4.40;;;;;;;;;;5039464;28;20056;-46
2023/01/15 10:35:28;;;;;;;7.30;4.00;;;;;;;;;;5039816;28;20496;-44
2023/01/15 10:38:01;;;;;;;8.20;4.57;;;;;;;;;;5039336;28;20128;-43
2023/01/15 10:40:49;;;;;;;6.32;4.05;;;;;;;;;;5039848;28;20476;-42
2023/01/15 10:43:15;;;;;;;6.38;3.80;;;;;;;;;;5038761;28;20048;-46
2023/01/15 10:45:44;;;;;;;7.47;3.90;;;;;;;;;;5039389;28;20041;-44
2023/01/15 10:48:15;;;;;;;6.60;4.35;;;;;;;;;;5038991;28;20041;-45
2023/01/15 10:50:42;;;;;;;6.45;4.05;;;;;;;;;;5040672;28;20041;-43
2023/01/15 10:53:17;;;;;;;12.90;4.22;;;;;;;;;;5039920;28;20608;-44
2023/01/15 10:55:46;;;;;;;6.50;4.10;;;;;;;;;;5040906;28;20052;-43
2023/01/15 10:58:15;;;;;;;6.53;4.55;;;;;;;;;;5039422;28;20095;-43
2023/01/15 11:00:45;;;;;;;6.65;3.75;;;;;;;;;;5038589;28;20122;-43
2023/01/15 11:03:16;;;;;;;6.85;3.92;;;;;;;;;;5037555;28;20135;-44
2023/01/15 11:05:45;;;;;;;7.30;3.95;;;;;;;;;;5037854;28;20051;-46
2023/01/15 11:08:21;;;;;;;7.25;4.18;;;;;;;;;;5040746;28;20037;-44
2023/01/15 11:11:15;;;;;;;6.30;3.97;;;;;;;;;;5039096;28;20048;-43
2023/01/15 11:19:35;;;;;;;5.97;3.30;;;;;;;;;;5035814;28;20584;-43
2023/01/15 11:19:36;;;;;;;6.05;3.25;;;;;;;;;;5036009;28;20037;-44
2023/01/15 11:22:08;;;;;;;6.05;4.00;;;;;;;;;;5037625;28;20052;-45
2023/01/15 11:24:44;;;;;;;8.07;3.65;;;;;;;;;;5036586;28;20041;-42
2023/01/15 11:27:14;;;;;;;6.32;4.03;;;;;;;;;;5032088;28;20049;-43
2023/01/15 11:29:42;;;;;;;5.97;3.78;;;;;;;;;;5039622;28;20118;-43
2023/01/15 11:32:18;;;;;;;5.68;3.45;;;;;;;;;;5037356;28;20068;-42
2023/01/15 11:34:51;;;;;;;5.93;3.22;;;;;;;;;;5038188;28;20041;-43
2023/01/15 11:37:18;;;;;;;6.47;3.22;;;;;;;;;;5033290;28;20068;-44
2023/01/15 11:40:04;;;;;;;5.03;3.03;;;;;;;;;;5042595;28;20039;-43
2023/01/15 11:51:01;;;;;;;5.50;3.45;;;;;;;;;;5036649;28;20079;-43
2023/01/15 11:53:31;;;;;;;7.10;3.35;;;;;;;;;;5035444;28;20532;-44
2023/01/15 11:55:59;;;;;;;5.53;3.83;;;;;;;;;;5037820;28;20482;-45
2023/01/15 11:58:46;;;;;;;6.85;3.97;;;;;;;;;;5037436;28;20406;-45
2023/01/15 12:01:19;;;;;;;4.75;2.40;;;;;;;;;;5036999;28;20071;-43
2023/01/15 12:03:46;;;;;;;5.32;3.15;;;;;;;;;;5035838;28;20114;-43
2023/01/15 12:06:13;;;;;;;5.07;3.08;;;;;;;;;;5038486;28;20044;-42
2023/01/15 12:08:43;;;;;;;5.63;3.15;;;;;;;;;;5035618;28;20033;-43
2023/01/15 12:11:13;;;;;;;4.97;2.50;;;;;;;;;;5039540;28;20569;-44
2023/01/15 12:14:11;;;;;;;5.55;3.03;;;;;;;;;;5037411;28;20045;-44
2023/01/15 12:17:13;;;;;;;5.00;3.25;;;;;;;;;;5039522;28;20116;-43
2023/01/15 12:19:58;;;;;;;5.60;2.75;;;;;;;;;;5012925;28;20072;-44
2023/01/15 12:22:38;;;;;;;4.22;2.40;;;;;;;;;;5038821;28;20041;-43
2023/01/15 12:25:19;;;;;;;5.72;3.55;;;;;;;;;;5036643;28;20634;-44
2023/01/15 12:27:48;;;;;;;5.25;3.13;;;;;;;;;;5040215;28;20075;-45
2023/01/15 12:30:22;;;;;;;5.30;3.05;;;;;;;;;;5035404;28;20090;-46
2023/01/15 12:32:49;;;;;;;;;;;;;;;;;;5039989;28;20136;-45
2023/01/15 12:35:27;;;;;;;4.80;3.03;;;;;;;;;;5036877;28;20384;-44
2023/01/15 12:37:57;;;;;;;4.97;2.40;;;;;;;;;;5038447;28;20601;-45
2023/01/15 12:40:29;;;;;;;5.22;2.60;;;;;;;;;;5035012;28;20190;-43
2023/01/15 12:45:48;;;;;;;5.25;2.30;;;;;;;;;;5035980;28;20033;-44
2023/01/15 12:48:25;;;;;;;4.90;2.70;;;;;;;;;;5037862;28;20048;-46
2023/01/15 12:50:53;;;;;;;5.35;2.92;;;;;;;;;;5034462;28;20094;-44
2023/01/15 12:53:26;;;;;;;5.10;2.70;;;;;;;;;;5041464;28;20055;-45
2023/01/15 12:55:57;;;;;;;4.38;2.53;;;;;;;;;;5035188;28;20531;-45
2023/01/15 12:58:26;;;;;;;5.22;2.22;;;;;;;;;;5037616;28;20127;-43
2023/01/15 13:01:01;;;;;;;4.50;2.78;;;;;;;;;;5036562;28;20501;-45
2023/01/15 13:03:47;;;;;;;4.60;2.55;;;;;;;;;;5035122;28;20522;-44
2023/01/15 13:06:15;;;;;;;4.72;2.53;;;;;;;;;;5034970;28;20079;-43
2023/01/15 13:09:12;;;;;;;4.45;2.65;;;;;;;;;;5038479;28;20159;-44
2023/01/15 13:11:38;;;;;;;4.55;2.55;;;;;;;;;;5029379;28;20061;-45
2023/01/15 13:14:14;;;;;;;4.32;2.30;;;;;;;;;;5036405;28;20048;-46
2023/01/15 13:16:57;;;;;;;5.35;2.72;;;;;;;;;;5039059;28;20095;-42
2023/01/15 13:19:45;;;;;;;3.92;2.42;;;;;;;;;;5037948;28;20052;-44
2023/01/15 13:22:17;;;;;;;4.00;2.22;;;;;;;;;;5038761;28;21488;-45
2023/01/15 13:24:46;;;;;;;4.55;2.58;;;;;;;;;;5040901;28;20056;-43
2023/01/15 13:27:19;;;;;;;4.68;2.58;;;;;;;;;;5041808;28;20633;-47
2023/01/15 13:29:54;;;;;;;5.38;2.13;;;;;;;;;;5039836;28;20041;-47
2023/01/15 13:32:21;;;;;;;6.30;2.50;;;;;;;;;;5040763;28;20092;-45
2023/01/15 13:34:59;;;;;;;7.00;3.17;;;;;;;;;;5039973;28;20419;-44
2023/01/15 13:37:28;;;;;;;5.70;2.53;;;;;;;;;;5056950;28;20847;-44
2023/01/15 13:40:02;;;;;;;4.97;2.38;;;;;;;;;;5039153;28;20048;-44
2023/01/15 13:42:32;;;;;;;;;;;;;;;;;;5041441;28;20049;-44
2023/01/15 13:45:17;;;;;;;6.43;3.13;;;;;;;;;;5039326;28;20487;-44
2023/01/15 13:47:46;;;;;;;6.53;2.45;;;;;;;;;;5043764;28;20049;-43
2023/01/15 13:50:18;;;;;;;6.47;3.15;;;;;;;;;;5041867;28;20628;-43
2023/01/15 13:52:44;;;;;;;6.05;2.65;;;;;;;;;;5046114;28;20036;-43
2023/01/15 13:55:14;;;;;;;8.38;2.78;;;;;;;;;;5040540;28;20060;-43
2023/01/15 13:57:41;;;;;;;8.20;2.65;;;;;;;;;;5041633;28;20126;-46
2023/01/15 14:00:26;;;;;;;6.68;2.70;;;;;;;;;;5041581;28;20049;-44
2023/01/15 14:02:55;;;;;;;6.88;2.33;;;;;;;;;;5042833;28;20552;-44
2023/01/15 14:05:22;;;;;;;7.22;2.05;;;;;;;;;;5042873;28;20048;-44
2023/01/15 14:07:48;;;;;;;6.20;3.30;;;;;;;;;;5040112;28;20037;-48
2023/01/15 14:10:19;;;;;;;5.57;2.17;;;;;;;;;;5040416;28;20040;-43
2023/01/15 14:13:12;;;;;;;7.03;2.55;;;;;;;;;;5035704;28;20037;-42
2023/01/15 14:16:02;;;;;;;8.35;2.35;;;;;;;;;;5040045;28;20037;-41
2023/01/15 14:18:44;;;;;;;6.65;3.83;;;;;;;;;;5040325;28;20118;-42
2023/01/15 14:21:14;;;;;;;7.15;2.28;;;;;;;;;;5035731;28;20048;-43
2023/01/15 14:24:13;;;;;;;5.68;2.55;;;;;;;;;;5040891;28;20131;-43
2023/01/15 14:27:15;;;;;;;5.30;2.47;;;;;;;;;;5045053;28;20390;-44
2023/01/15 14:29:44;;;;;;;9.50;3.08;;;;;;;;;;5015697;28;20518;-43
2023/01/15 14:32:19;;;;;;;8.57;2.13;;;;;;;;;;5034332;28;20041;-45
2023/01/15 14:34:53;;;;;;;7.03;2.20;;;;;;;;;;5041030;28;20041;-45
2023/01/15 14:37:29;;;;;;;7.35;2.92;;;;;;;;;;5037459;28;20560;-48
2023/01/15 14:39:58;;;;;;;15.55;2.90;;;;;;;;;;5045214;28;20544;-45
2023/01/15 14:45:10;;;;;;;4.82;2.40;;;;;;;;;;5039212;28;20722;-44
2023/01/15 14:47:47;;;;;;;5.07;2.65;;;;;;;;;;5043500;28;20049;-45
2023/01/15 14:50:33;;;;;;;5.55;2.80;;;;;;;;;;5038044;28;20796;-44
2023/01/15 14:53:05;;;;;;;4.85;1.92;;;;;;;;;;5034076;28;20041;-46
2023/01/15 14:55:32;;;;;;;5.22;2.28;;;;;;;;;;5042169;28;20100;-46
2023/01/15 14:58:13;;;;;;;8.98;2.65;;;;;;;;;;5041102;28;20528;-45
2023/01/15 15:00:43;;;;;;;5.35;2.40;;;;;;;;;;5039892;28;20136;-42
2023/01/15 15:03:18;;;;;;;5.35;2.00;;;;;;;;;;5039092;28;20111;-43
2023/01/15 15:05:44;;;;;;;6.35;2.38;;;;;;;;;;5036066;28;20047;-45
2023/01/15 15:08:15;;;;;;;6.50;2.35;;;;;;;;;;5038122;28;20045;-45
2023/01/15 15:10:42;;;;;;;7.50;2.65;;;;;;;;;;5038687;28;20044;-44
2023/01/15 15:13:27;;;;;;;6.72;1.90;;;;;;;;;;5043326;28;20510;-42
2023/01/15 15:16:03;;;;;;;4.72;2.03;;;;;;;;;;5037678;28;20044;-45
2023/01/15 15:18:48;;;;;;;4.78;2.20;;;;;;;;;;5040002;28;20064;-49
2023/01/15 15:21:15;;;;;;;4.05;1.90;;;;;;;;;;5036091;28;20037;-47
2023/01/15 15:23:58;;;;;;;8.07;3.00;;;;;;;;;;5039570;28;20067;-47
2023/01/15 15:26:28;;;;;;;7.25;2.85;;;;;;;;;;5037078;28;20434;-46
2023/01/15 15:28:56;;;;;;;4.85;2.40;;;;;;;;;;5041369;28;20119;-48
2023/01/15 15:31:25;;;;;;;6.90;2.40;;;;;;;;;;5036160;28;20041;-50